createdAt,value
2019-05-17T00:00:09.520Z,152050.84
2019-05-17T00:02:38.143Z,152027.25
2019-05-17T00:05:08.392Z,152014.16
2019-05-17T00:07:38.587Z,152001.00
2019-05-17T00:10:07.418Z,152024.64
2019-05-17T00:12:36.715Z,151985.28
2019-05-17T00:15:07.688Z,152007.58
2019-05-17T00:17:37.812Z,151998.39
2019-05-17T00:20:09.827Z,151972.19
2019-05-17T00:22:38.355Z,151998.39
2019-05-17T00:25:07.623Z,151985.28
2019-05-17T00:27:36.971Z,151961.70
2019-05-17T00:30:09.418Z,151970.84
2019-05-17T00:32:37.955Z,151969.53
2019-05-17T00:35:08.227Z,151956.44
2019-05-17T00:37:37.468Z,151977.41
2019-05-17T00:40:07.771Z,151978.72
2019-05-17T00:42:37.155Z,151977.41
2019-05-17T00:45:10.064Z,151981.33
2019-05-17T00:47:38.607Z,151993.17
2019-05-17T00:50:07.878Z,151993.17
2019-05-17T00:52:37.156Z,151990.50
2019-05-17T00:55:09.621Z,152011.48
2019-05-17T00:57:38.203Z,152029.86
2019-05-17T01:00:08.522Z,152023.34
2019-05-17T01:02:37.382Z,152027.25
2019-05-17T01:05:09.153Z,152024.64
2019-05-17T01:07:37.952Z,152018.06
2019-05-17T01:10:08.691Z,152014.16
2019-05-17T01:12:37.313Z,152014.16
2019-05-17T01:15:08.686Z,151991.86
2019-05-17T01:17:37.174Z,151980.02
2019-05-17T01:20:08.873Z,151985.28
2019-05-17T01:22:37.466Z,151990.50
2019-05-17T01:25:07.934Z,151959.03
2019-05-17T01:27:38.190Z,151938.06
2019-05-17T01:30:10.559Z,151951.22
2019-05-17T01:32:39.144Z,151922.36
2019-05-17T01:35:08.347Z,151960.34
2019-05-17T01:37:37.280Z,151944.64
2019-05-17T01:40:07.209Z,151961.70
2019-05-17T01:42:37.395Z,151948.56
2019-05-17T01:45:09.762Z,151945.94
2019-05-17T01:47:38.354Z,151959.03
2019-05-17T01:50:08.757Z,151959.03
2019-05-17T01:52:37.410Z,151924.97
2019-05-17T01:55:10.515Z,151919.75
2019-05-17T01:57:39.064Z,151927.58
2019-05-17T02:00:09.662Z,151945.94
2019-05-17T02:02:57.820Z,151955.13
2019-05-17T02:05:27.422Z,151885.62
2019-05-17T02:07:56.931Z,151922.36
2019-05-17T02:10:27.144Z,151893.50
2019-05-17T02:12:57.046Z,151917.09
2019-05-17T02:15:26.774Z,151902.69
2019-05-17T02:17:57.343Z,151917.09
2019-05-17T02:20:27.501Z,151914.48
2019-05-17T02:22:56.494Z,151906.59
2019-05-17T02:25:27.199Z,151829.28
2019-05-17T02:27:55.751Z,151851.56
2019-05-17T02:30:24.516Z,151839.78
2019-05-17T02:32:54.179Z,151867.27
2019-05-17T02:35:23.332Z,151851.56
2019-05-17T02:37:53.443Z,151812.23
2019-05-17T02:40:22.834Z,151833.20
2019-05-17T02:42:53.591Z,151855.47
2019-05-17T02:45:23.370Z,151835.81
2019-05-17T02:47:53.752Z,151843.69
2019-05-17T02:50:23.429Z,151816.14
2019-05-17T02:52:52.759Z,151778.17
2019-05-17T02:55:23.253Z,151779.47
2019-05-17T02:57:52.946Z,151797.84
2019-05-17T03:00:23.973Z,151780.78
2019-05-17T03:02:53.667Z,151775.56
2019-05-17T03:05:23.279Z,151791.27
2019-05-17T03:07:52.786Z,151801.75
2019-05-17T03:10:25.260Z,151770.30
2019-05-17T03:12:53.047Z,151779.47
2019-05-17T03:15:23.414Z,151758.52
2019-05-17T03:17:53.655Z,151746.72
2019-05-17T03:20:23.235Z,151753.25
2019-05-17T03:22:52.647Z,151730.98
2019-05-17T03:25:23.809Z,151716.59
2019-05-17T03:27:53.633Z,151728.37
2019-05-17T03:30:25.844Z,151742.77
2019-05-17T03:32:56.094Z,151732.28
2019-05-17T03:35:26.626Z,151715.28
2019-05-17T03:37:54.002Z,151723.11
2019-05-17T03:40:46.310Z,151704.81
2019-05-17T03:42:54.994Z,151712.63
2019-05-17T03:45:23.493Z,151736.25
2019-05-17T03:47:53.235Z,151725.77
2019-05-17T03:50:22.642Z,151725.77
2019-05-17T03:52:53.555Z,151738.86
2019-05-17T03:55:23.497Z,151710.03
2019-05-17T03:57:53.237Z,151721.81
2019-05-17T04:00:23.402Z,151719.20
2019-05-17T04:02:53.762Z,151710.03
2019-05-17T04:05:22.915Z,151728.37
2019-05-17T04:07:53.608Z,151733.59
2019-05-17T04:10:22.851Z,151724.47
2019-05-17T04:12:52.970Z,151750.64
2019-05-17T04:15:23.937Z,151767.69
2019-05-17T04:17:54.113Z,151775.56
2019-05-17T04:20:22.608Z,151783.39
2019-05-17T04:22:52.690Z,151799.14
2019-05-17T04:25:23.397Z,151804.36
2019-05-17T04:27:53.677Z,151816.14
2019-05-17T04:30:23.331Z,151826.69
2019-05-17T04:32:52.771Z,151835.81
2019-05-17T04:35:23.258Z,151854.17
2019-05-17T04:37:53.169Z,151871.22
2019-05-17T04:40:23.108Z,151884.33
2019-05-17T04:42:52.665Z,151872.53
2019-05-17T04:45:22.998Z,151879.11
2019-05-17T04:47:52.874Z,151871.22
2019-05-17T04:50:23.071Z,151875.14
2019-05-17T04:52:53.585Z,151896.12
2019-05-17T04:55:23.045Z,151906.59
2019-05-17T04:57:52.979Z,151923.66
2019-05-17T05:00:22.022Z,151930.23
2019-05-17T05:02:52.798Z,151915.78
2019-05-17T05:05:22.850Z,151943.34
2019-05-17T05:07:53.445Z,151953.81
2019-05-17T05:10:22.517Z,151959.03
2019-05-17T05:12:52.454Z,151951.22
2019-05-17T05:15:43.992Z,151976.11
2019-05-17T05:18:13.602Z,152003.66
2019-05-17T05:20:43.629Z,152031.17
2019-05-17T05:23:13.084Z,152069.22
2019-05-17T05:25:43.005Z,152099.39
2019-05-17T05:28:11.995Z,152124.30
2019-05-17T05:30:42.211Z,152157.14
2019-05-17T05:33:12.989Z,152159.75
2019-05-17T05:35:42.548Z,152208.31
2019-05-17T05:38:12.974Z,152242.47
2019-05-17T05:40:42.753Z,152260.86
2019-05-17T05:43:11.925Z,152279.19
2019-05-17T05:45:41.636Z,152300.19
2019-05-17T05:48:12.732Z,152333.06
2019-05-17T05:50:43.214Z,152375.06
2019-05-17T05:53:12.877Z,152410.50
2019-05-17T05:55:42.889Z,152463.02
2019-05-17T05:58:12.383Z,152501.13
2019-05-17T06:00:42.838Z,152551.06
2019-05-17T06:03:12.042Z,152593.09
2019-05-17T06:05:42.274Z,152622.02
2019-05-17T06:08:12.308Z,152650.94
2019-05-17T06:10:42.664Z,152715.31
2019-05-17T06:13:13.204Z,152758.73
2019-05-17T06:15:43.009Z,152799.50
2019-05-17T06:18:12.323Z,152871.83
2019-05-17T06:20:42.064Z,152970.50
2019-05-17T06:23:12.191Z,152982.33
2019-05-17T06:25:43.522Z,153020.50
2019-05-17T06:28:11.727Z,153146.81
2019-05-17T06:30:42.670Z,153249.50
2019-05-17T06:33:11.940Z,153321.97
2019-05-17T06:35:42.317Z,153375.97
2019-05-17T06:38:12.051Z,153470.81
2019-05-17T06:40:41.978Z,153600.03
2019-05-17T06:43:13.055Z,153726.58
2019-05-17T06:45:42.057Z,153805.72
2019-05-17T06:48:11.778Z,153883.56
2019-05-17T06:50:43.067Z,154051.14
2019-05-17T06:53:13.111Z,154156.78
2019-05-17T06:55:42.567Z,154090.75
2019-05-17T06:58:12.208Z,154213.58
2019-05-17T07:00:40.892Z,154185.84
2019-05-17T07:03:09.715Z,154238.66
2019-05-17T07:05:43.085Z,154159.45
2019-05-17T07:08:11.585Z,154309.97
2019-05-17T07:10:40.209Z,154246.59
2019-05-17T07:13:10.634Z,154331.11
2019-05-17T07:15:46.887Z,154298.09
2019-05-17T07:18:10.241Z,154357.56
2019-05-17T07:20:39.614Z,154382.69
2019-05-17T07:23:10.754Z,154546.56
2019-05-17T07:25:39.777Z,154491.02
2019-05-17T07:28:10.013Z,154632.52
2019-05-17T07:30:40.256Z,154726.41
2019-05-17T07:33:10.141Z,154756.81
2019-05-17T07:35:39.767Z,154772.72
2019-05-17T07:38:10.585Z,154885.16
2019-05-17T07:40:39.922Z,155005.61
2019-05-17T07:43:13.771Z,154832.25
2019-05-17T07:45:40.518Z,154927.50
2019-05-17T07:48:09.927Z,155008.23
2019-05-17T07:50:39.834Z,155079.77
2019-05-17T07:53:10.289Z,155041.31
2019-05-17T07:55:39.882Z,155049.31
2019-05-17T07:58:10.052Z,155103.59
2019-05-17T08:00:40.082Z,155074.45
2019-05-17T08:03:12.691Z,155172.45
2019-05-17T08:05:40.338Z,155106.22
2019-05-17T08:08:09.777Z,155131.41
2019-05-17T08:10:40.885Z,155308.91
2019-05-17T08:13:25.140Z,155461.34
2019-05-17T08:15:39.871Z,155345.97
2019-05-17T08:18:10.790Z,155446.69
2019-05-17T08:20:40.190Z,155559.39
2019-05-17T08:23:10.476Z,155624.34
2019-05-17T08:25:51.929Z,155688.03
2019-05-17T08:28:10.938Z,155601.81
2019-05-17T08:30:40.986Z,155673.47
2019-05-17T08:33:10.862Z,155617.75
2019-05-17T08:35:40.331Z,155673.47
2019-05-17T08:38:10.391Z,155766.30
2019-05-17T08:40:40.460Z,155713.25
2019-05-17T08:43:09.944Z,155759.64
2019-05-17T08:45:40.683Z,155760.97
2019-05-17T08:48:09.639Z,155705.28
2019-05-17T08:50:40.332Z,155902.97
2019-05-17T08:53:10.744Z,155946.75
2019-05-17T08:55:40.912Z,155723.86
2019-05-17T08:58:10.427Z,155898.97
2019-05-17T09:00:40.497Z,155792.80
2019-05-17T09:03:10.722Z,155851.23
2019-05-17T09:05:41.833Z,155825.95
2019-05-17T09:08:10.660Z,155869.81
2019-05-17T09:10:40.742Z,155916.22
2019-05-17T09:13:12.366Z,155864.48
2019-05-17T09:15:40.165Z,155859.20
2019-05-17T09:18:09.811Z,155914.91
2019-05-17T09:20:40.624Z,156230.91
2019-05-17T09:23:09.724Z,155967.97
2019-05-17T09:25:39.753Z,156021.06
2019-05-17T09:28:10.241Z,156200.31
2019-05-17T09:30:40.632Z,156003.78
2019-05-17T09:33:11.391Z,155746.41
2019-05-17T09:35:41.042Z,156058.30
2019-05-17T09:38:10.475Z,156131.30
2019-05-17T09:40:40.326Z,156046.36
2019-05-17T09:43:10.202Z,155593.84
2019-05-17T09:45:40.531Z,155410.94
2019-05-17T09:48:10.362Z,155395.00
2019-05-17T09:50:40.051Z,155469.25
2019-05-17T09:53:10.737Z,155629.67
2019-05-17T09:55:39.837Z,155892.36
2019-05-17T09:58:09.970Z,155958.69
2019-05-17T10:00:38.806Z,155543.47
2019-05-17T10:03:09.759Z,155479.86
2019-05-17T10:05:40.269Z,155528.91
2019-05-17T10:08:10.622Z,155491.78
2019-05-17T10:10:41.127Z,155445.36
2019-05-17T10:13:09.999Z,155495.78
2019-05-17T10:15:40.829Z,155295.67
2019-05-17T10:18:10.993Z,155426.80
2019-05-17T10:20:40.065Z,155572.64
2019-05-17T10:23:10.424Z,155723.86
2019-05-17T10:25:40.060Z,155684.06
2019-05-17T10:28:10.127Z,155949.39
2019-05-17T10:30:39.889Z,155912.27
2019-05-17T10:33:09.880Z,155970.63
2019-05-17T10:35:40.655Z,156026.44
2019-05-17T10:38:10.252Z,155738.44
2019-05-17T10:40:40.822Z,155644.23
2019-05-17T10:43:10.301Z,155466.63
2019-05-17T10:45:40.049Z,155402.97
2019-05-17T10:48:10.285Z,155344.66
2019-05-17T10:50:40.641Z,155191.00
2019-05-17T10:53:10.155Z,155143.31
2019-05-17T10:55:39.656Z,155168.45
2019-05-17T10:58:10.085Z,155172.45
2019-05-17T11:00:41.295Z,155357.94
2019-05-17T11:03:09.984Z,155055.95
2019-05-17T11:05:40.524Z,155063.86
2019-05-17T11:08:10.836Z,154957.94
2019-05-17T11:10:39.756Z,154915.59
2019-05-17T11:13:08.621Z,154833.56
2019-05-17T11:15:37.135Z,154825.63
2019-05-17T11:18:05.676Z,154776.66
2019-05-17T11:20:34.192Z,154801.78
2019-05-17T11:23:02.714Z,154775.34
2019-05-17T11:25:31.280Z,154727.72
2019-05-17T11:27:59.865Z,154688.03
2019-05-17T11:30:28.427Z,154648.41
2019-05-17T11:32:57.008Z,154658.98
2019-05-17T11:35:25.555Z,154665.56
2019-05-17T11:37:54.048Z,154653.67
2019-05-17T11:40:23.286Z,154608.73
2019-05-17T11:42:51.758Z,154608.73
2019-05-17T11:45:27.605Z,154575.64
2019-05-17T11:47:50.452Z,154567.70
2019-05-17T11:50:19.208Z,154522.78
2019-05-17T11:52:47.714Z,154522.78
2019-05-17T11:55:16.566Z,154543.92
2019-05-17T11:57:45.098Z,154522.78
2019-05-17T12:00:14.728Z,154537.30
2019-05-17T12:02:43.241Z,154492.38
2019-05-17T12:05:12.233Z,154524.09
2019-05-17T12:07:40.749Z,154521.41
2019-05-17T12:10:10.694Z,154537.30
2019-05-17T12:12:39.182Z,154448.73
2019-05-17T12:15:07.923Z,154481.81
2019-05-17T12:17:36.564Z,154512.16
2019-05-17T12:20:10.096Z,154576.95
2019-05-17T12:22:38.677Z,154619.31
2019-05-17T12:25:07.684Z,154606.09
2019-05-17T12:27:36.293Z,154583.53
2019-05-17T12:30:09.783Z,154616.67
2019-05-17T12:32:39.818Z,154643.09
2019-05-17T12:35:08.760Z,154648.41
2019-05-17T12:37:37.237Z,154644.41
2019-05-17T12:40:06.581Z,154640.47
2019-05-17T12:42:35.120Z,154681.45
2019-05-17T12:45:05.602Z,154682.77
2019-05-17T12:47:34.156Z,154656.30
2019-05-17T12:50:02.677Z,154614.00
2019-05-17T12:52:31.172Z,154653.67
2019-05-17T12:54:59.678Z,154680.14
2019-05-17T12:57:28.226Z,154688.03
2019-05-17T12:59:56.785Z,154651.03
2019-05-17T13:02:25.549Z,154623.25
2019-05-17T13:04:54.132Z,154661.61
2019-05-17T13:07:23.473Z,154614.00
2019-05-17T13:09:51.999Z,154632.52
2019-05-17T13:12:20.479Z,154607.42
2019-05-17T13:14:48.938Z,154629.89
2019-05-17T13:17:17.443Z,154554.50
2019-05-17T13:19:45.982Z,154534.66
2019-05-17T13:22:14.520Z,154558.44
2019-05-17T13:24:42.964Z,154664.25
2019-05-17T13:27:11.441Z,154621.94
2019-05-17T13:29:39.959Z,154637.83
2019-05-17T13:32:08.598Z,154744.92
2019-05-17T13:34:37.122Z,154653.67
2019-05-17T13:37:05.666Z,154621.94
2019-05-17T13:39:34.231Z,154616.67
2019-05-17T13:42:02.734Z,154631.20
2019-05-17T13:44:34.337Z,154661.61
2019-05-17T13:47:02.811Z,154647.05
2019-05-17T13:49:31.369Z,154645.72
2019-05-17T13:51:59.876Z,154653.67
2019-05-17T13:54:28.455Z,154669.56
2019-05-17T13:56:56.943Z,154654.98
2019-05-17T13:59:25.479Z,154645.72
2019-05-17T14:01:53.991Z,154608.73
2019-05-17T14:04:22.491Z,154592.80
2019-05-17T14:06:50.990Z,154591.48
2019-05-17T14:09:19.530Z,154541.25
2019-05-17T14:11:48.098Z,154547.88
2019-05-17T14:14:16.663Z,154539.94
2019-05-17T14:16:45.231Z,154542.56
2019-05-17T14:19:13.726Z,154508.22
2019-05-17T14:21:42.462Z,154512.16
2019-05-17T14:24:10.962Z,154505.58
2019-05-17T14:26:39.539Z,154508.22
2019-05-17T14:29:08.186Z,154547.88
2019-05-17T14:31:36.756Z,154541.25
2019-05-17T14:34:05.332Z,154534.66
2019-05-17T14:36:33.950Z,154521.41
2019-05-17T14:39:02.416Z,154500.27
2019-05-17T14:41:31.041Z,154535.98
2019-05-17T14:43:59.639Z,154555.81
2019-05-17T14:46:28.146Z,154553.12
2019-05-17T14:48:56.693Z,154553.12
2019-05-17T14:51:25.206Z,154579.59
2019-05-17T14:53:53.731Z,154586.22
2019-05-17T14:56:22.252Z,154582.22
2019-05-17T14:58:50.729Z,154549.19
2019-05-17T15:01:19.209Z,154534.66
2019-05-17T15:03:47.703Z,154558.44
2019-05-17T15:06:16.184Z,154557.12
2019-05-17T15:08:44.706Z,154555.81
2019-05-17T15:11:13.268Z,154539.94
2019-05-17T15:13:41.754Z,154558.44
2019-05-17T15:16:10.298Z,154531.98
2019-05-17T15:18:38.817Z,154551.81
2019-05-17T15:21:07.294Z,154570.33
2019-05-17T15:23:35.784Z,154582.22
2019-05-17T15:26:04.252Z,154606.09
2019-05-17T15:28:32.811Z,154627.25
2019-05-17T15:31:10.510Z,154611.38
2019-05-17T15:33:34.696Z,154600.73
2019-05-17T15:36:03.166Z,154579.59
2019-05-17T15:38:31.648Z,154616.67
2019-05-17T15:41:00.111Z,154588.84
2019-05-17T15:43:28.590Z,154557.12
2019-05-17T15:45:57.114Z,154545.23
2019-05-17T15:48:25.635Z,154591.48
2019-05-17T15:50:54.086Z,154558.44
2019-05-17T15:53:22.669Z,154550.50
2019-05-17T15:55:51.204Z,154534.66
2019-05-17T15:58:19.717Z,154539.94
2019-05-17T16:00:49.792Z,154524.09
2019-05-17T16:03:18.335Z,154551.81
2019-05-17T16:05:46.850Z,154550.50
2019-05-17T16:08:15.373Z,154566.37
2019-05-17T16:10:43.938Z,154547.88
2019-05-17T16:13:12.552Z,154563.70
2019-05-17T16:15:41.140Z,154557.12
2019-05-17T16:18:09.680Z,154561.08
2019-05-17T16:20:40.526Z,154566.37
2019-05-17T16:23:09.847Z,154614.00
2019-05-17T16:25:38.953Z,154582.22
2019-05-17T16:28:10.156Z,154571.66
2019-05-17T16:30:39.161Z,154542.56
2019-05-17T16:33:07.859Z,154555.81
2019-05-17T16:35:36.392Z,154555.81
2019-05-17T16:38:04.978Z,154561.08
2019-05-17T16:40:33.598Z,154558.44
2019-05-17T16:43:16.747Z,154569.02
2019-05-17T16:45:32.438Z,154559.75
2019-05-17T16:48:00.954Z,154559.75
2019-05-17T16:50:29.600Z,154559.75
2019-05-17T16:53:06.119Z,154557.12
2019-05-17T16:55:28.395Z,154550.50
2019-05-17T16:57:56.862Z,154541.25
2019-05-17T17:00:30.354Z,154513.52
2019-05-17T17:02:59.158Z,154520.09
2019-05-17T17:05:27.688Z,154502.95
2019-05-17T17:07:56.340Z,154484.44
2019-05-17T17:10:25.185Z,154484.44
2019-05-17T17:12:53.806Z,154461.98
2019-05-17T17:15:22.426Z,154452.72
2019-05-17T17:17:50.911Z,154428.91
2019-05-17T17:20:20.087Z,154426.28
2019-05-17T17:22:48.689Z,154406.45
2019-05-17T17:25:17.302Z,154415.70
2019-05-17T17:27:45.863Z,154403.81
2019-05-17T17:30:15.835Z,154391.94
2019-05-17T17:32:44.439Z,154380.05
2019-05-17T17:35:13.265Z,154414.39
2019-05-17T17:37:41.764Z,154381.38
2019-05-17T17:40:10.532Z,154352.25
2019-05-17T17:42:39.300Z,154341.67
2019-05-17T17:45:10.499Z,154323.17
2019-05-17T17:47:38.999Z,154315.28
2019-05-17T17:50:08.046Z,154306.03
2019-05-17T17:52:36.628Z,154307.34
2019-05-17T17:55:06.504Z,154296.78
2019-05-17T17:57:34.954Z,154280.91
2019-05-17T18:00:05.399Z,154276.97
2019-05-17T18:02:33.894Z,154270.34
2019-05-17T18:05:02.591Z,154284.91
2019-05-17T18:07:31.181Z,154280.91
2019-05-17T18:09:59.669Z,154278.28
2019-05-17T18:12:28.129Z,154262.47
2019-05-17T18:14:56.631Z,154251.84
2019-05-17T18:17:25.136Z,154251.84
2019-05-17T18:19:53.612Z,154236.03
2019-05-17T18:22:22.094Z,154233.39
2019-05-17T18:24:50.594Z,154230.72
2019-05-17T18:27:19.074Z,154225.45
2019-05-17T18:29:47.532Z,154209.59
2019-05-17T18:32:16.085Z,154205.66
2019-05-17T18:34:44.547Z,154191.14
2019-05-17T18:37:13.035Z,154184.53
2019-05-17T18:39:41.512Z,154159.45
2019-05-17T18:42:10.012Z,154159.45
2019-05-17T18:44:38.548Z,154146.22
2019-05-17T18:47:07.132Z,154147.53
2019-05-17T18:49:39.426Z,154127.78
2019-05-17T18:52:07.941Z,154125.09
2019-05-17T18:54:36.437Z,154109.23
2019-05-17T18:57:04.930Z,154085.44
2019-05-17T18:59:33.430Z,154090.75
2019-05-17T19:02:01.926Z,154082.81
2019-05-17T19:04:30.399Z,154074.88
2019-05-17T19:06:58.907Z,154072.25
2019-05-17T19:09:27.375Z,154077.56
2019-05-17T19:11:55.892Z,154040.58
2019-05-17T19:14:24.333Z,154053.77
2019-05-17T19:16:52.883Z,154040.58
2019-05-17T19:19:21.374Z,154016.84
2019-05-17T19:21:49.969Z,154000.97
2019-05-17T19:24:18.443Z,154000.97
2019-05-17T19:26:46.931Z,153987.80
2019-05-17T19:29:15.413Z,153983.84
2019-05-17T19:31:43.920Z,153961.44
2019-05-17T19:34:12.400Z,153969.31
2019-05-17T19:36:41.675Z,153949.52
2019-05-17T19:39:10.313Z,153949.52
2019-05-17T19:41:38.794Z,153931.08
2019-05-17T19:44:07.333Z,153924.47
2019-05-17T19:46:35.834Z,153919.16
2019-05-17T19:49:04.528Z,153935.02
2019-05-17T19:51:33.052Z,153905.98
2019-05-17T19:54:01.515Z,153902.05
2019-05-17T19:56:30.027Z,153886.19
2019-05-17T19:58:58.535Z,153890.19
2019-05-17T20:01:27.058Z,153871.70
2019-05-17T20:03:55.513Z,153887.50
2019-05-17T20:06:24.021Z,153876.95
2019-05-17T20:08:52.503Z,153870.37
2019-05-17T20:11:33.687Z,153866.41
2019-05-17T20:13:51.279Z,153870.37
2019-05-17T20:16:19.773Z,153861.16
2019-05-17T20:18:48.272Z,153850.55
2019-05-17T20:21:16.753Z,153846.59
2019-05-17T20:23:45.247Z,153840.00
2019-05-17T20:26:13.715Z,153845.25
2019-05-17T20:28:42.257Z,153829.44
2019-05-17T20:31:10.742Z,153821.52
2019-05-17T20:33:39.240Z,153814.91
2019-05-17T20:36:07.715Z,153810.97
2019-05-17T20:38:36.227Z,153810.97
2019-05-17T20:41:04.685Z,153809.66
2019-05-17T20:43:33.197Z,153805.72
2019-05-17T20:46:01.676Z,153797.78
2019-05-17T20:48:30.212Z,153785.94
2019-05-17T20:50:58.711Z,153789.87
2019-05-17T20:53:27.196Z,153792.50
2019-05-17T20:55:55.861Z,153784.62
2019-05-17T20:58:24.400Z,153803.03
2019-05-17T21:00:52.953Z,153789.87
2019-05-17T21:03:21.456Z,153795.17
2019-05-17T21:05:49.964Z,153789.87
2019-05-17T21:08:18.493Z,153795.17
2019-05-17T21:10:46.962Z,153797.78
2019-05-17T21:13:15.464Z,153787.23
2019-05-17T21:15:47.869Z,153792.50
2019-05-17T21:18:14.162Z,153779.31
2019-05-17T21:20:42.628Z,153776.69
2019-05-17T21:23:11.125Z,153784.62
2019-05-17T21:25:39.607Z,153778.00
2019-05-17T21:28:08.098Z,153776.69
2019-05-17T21:30:36.573Z,153759.53
2019-05-17T21:33:05.248Z,153760.84
2019-05-17T21:35:33.720Z,153752.92
2019-05-17T21:38:02.230Z,153745.05
2019-05-17T21:40:30.702Z,153739.75
2019-05-17T21:42:59.216Z,153739.75
2019-05-17T21:45:27.693Z,153737.13
2019-05-17T21:47:58.906Z,153731.81
2019-05-17T21:50:27.384Z,153713.41
2019-05-17T21:52:55.905Z,153692.31
2019-05-17T21:55:27.324Z,153683.06
2019-05-17T21:57:55.834Z,153675.16
2019-05-17T22:00:51.715Z,153687.00
2019-05-17T22:03:21.431Z,153684.39
2019-05-17T22:05:49.914Z,153656.69
2019-05-17T22:08:18.404Z,153643.52
2019-05-17T22:10:46.880Z,153647.45
2019-05-17T22:13:15.378Z,153631.66
2019-05-17T22:15:43.858Z,153636.91
2019-05-17T22:18:12.365Z,153601.34
2019-05-17T22:20:40.851Z,153594.72
2019-05-17T22:23:09.361Z,153589.48
2019-05-17T22:25:37.838Z,153573.59
2019-05-17T22:28:06.356Z,153573.59
2019-05-17T22:30:34.841Z,153578.94
2019-05-17T22:33:03.351Z,153549.88
2019-05-17T22:35:31.888Z,153560.42
2019-05-17T22:38:00.441Z,153531.42
2019-05-17T22:40:29.002Z,153528.80
2019-05-17T22:42:57.554Z,153526.19
2019-05-17T22:45:26.206Z,153527.48
2019-05-17T22:47:54.707Z,153499.80
2019-05-17T22:50:23.333Z,153511.66
2019-05-17T22:52:51.871Z,153509.03
2019-05-17T22:55:20.530Z,153490.56
2019-05-17T22:57:49.088Z,153478.72
2019-05-17T23:00:17.766Z,153470.81
2019-05-17T23:02:46.266Z,153465.56
2019-05-17T23:05:14.841Z,153453.72
2019-05-17T23:07:43.509Z,153464.25
2019-05-17T23:10:12.275Z,153447.09
2019-05-17T23:12:40.752Z,153447.09
2019-05-17T23:15:09.609Z,153433.94
2019-05-17T23:17:38.266Z,153391.80
2019-05-17T23:20:07.321Z,153395.72
2019-05-17T23:22:35.821Z,153378.59
2019-05-17T23:25:06.931Z,153375.97
2019-05-17T23:27:35.417Z,153378.59
2019-05-17T23:30:05.354Z,153349.66
2019-05-17T23:32:34.141Z,153336.44
2019-05-17T23:35:04.066Z,153336.44
2019-05-17T23:37:39.493Z,153349.66
2019-05-17T23:40:08.985Z,153332.50
2019-05-17T23:42:39.604Z,153339.11
2019-05-17T23:45:08.796Z,153302.22
2019-05-17T23:47:37.277Z,153308.81
2019-05-17T23:50:09.108Z,153299.59
2019-05-17T23:52:37.574Z,153298.28
2019-05-17T23:55:07.180Z,153289.06
2019-05-17T23:57:35.652Z,153278.48
